createdAt,value
2017-07-21T00:00:16.365Z,80.85
2017-07-21T00:02:48.797Z,81.03
2017-07-21T00:05:21.232Z,80.94
2017-07-21T00:07:53.621Z,81.10
2017-07-21T00:10:25.944Z,81.23
2017-07-21T00:12:58.318Z,81.32
2017-07-21T00:15:30.765Z,81.57
2017-07-21T00:18:03.172Z,81.07
2017-07-21T00:20:35.554Z,81.11
2017-07-21T00:23:08.095Z,81.24
2017-07-21T00:25:40.375Z,81.62
2017-07-21T00:28:12.745Z,81.59
2017-07-21T00:30:45.107Z,81.83
2017-07-21T00:33:17.491Z,82.00
2017-07-21T00:35:50.237Z,82.12
2017-07-21T00:38:22.209Z,82.08
2017-07-21T00:40:54.780Z,82.61
2017-07-21T00:43:27.045Z,82.98
2017-07-21T00:45:59.428Z,82.87
2017-07-21T00:48:31.824Z,83.06
2017-07-21T00:51:04.142Z,83.07
2017-07-21T00:53:36.470Z,83.30
2017-07-21T00:56:08.878Z,83.36
2017-07-21T00:58:41.182Z,83.27
2017-07-21T01:01:13.570Z,83.59
2017-07-21T01:03:45.962Z,83.55
2017-07-21T01:06:18.356Z,83.87
2017-07-21T01:08:50.804Z,84.28
2017-07-21T01:11:23.162Z,84.38
2017-07-21T01:13:55.601Z,84.65
2017-07-21T01:16:28.005Z,84.65
2017-07-21T01:19:00.424Z,84.66
2017-07-21T01:21:32.741Z,84.84
2017-07-21T01:24:05.166Z,84.91
2017-07-21T01:26:37.617Z,85.37
2017-07-21T01:29:10.100Z,86.20
2017-07-21T01:31:42.458Z,86.30
2017-07-21T01:34:15.041Z,86.25
2017-07-21T01:36:47.322Z,86.37
2017-07-21T01:39:19.806Z,86.09
2017-07-21T01:41:52.393Z,86.50
2017-07-21T01:44:24.777Z,86.29
2017-07-21T01:46:57.201Z,86.63
2017-07-21T01:49:29.625Z,87.16
2017-07-21T01:52:02.079Z,87.50
2017-07-21T01:54:34.517Z,87.75
2017-07-21T01:57:06.897Z,87.63
2017-07-21T01:59:39.286Z,87.59
2017-07-21T02:02:11.682Z,87.63
2017-07-21T02:04:44.070Z,88.02
2017-07-21T02:07:16.513Z,88.17
2017-07-21T02:09:48.962Z,88.49
2017-07-21T02:12:21.344Z,88.71
2017-07-21T02:14:53.769Z,88.96
2017-07-21T02:17:26.104Z,89.12
2017-07-21T02:19:58.556Z,89.24
2017-07-21T02:22:30.849Z,88.96
2017-07-21T02:25:03.236Z,89.45
2017-07-21T02:27:35.565Z,89.90
2017-07-21T02:30:07.885Z,89.75
2017-07-21T02:32:40.166Z,89.45
2017-07-21T02:35:12.517Z,89.63
2017-07-21T02:37:44.968Z,89.63
2017-07-21T02:40:17.285Z,89.42
2017-07-21T02:42:49.624Z,89.01
2017-07-21T02:45:21.996Z,88.62
2017-07-21T02:47:54.374Z,88.56
2017-07-21T02:50:26.751Z,88.89
2017-07-21T02:52:59.058Z,88.71
2017-07-21T02:55:31.505Z,88.56
2017-07-21T02:58:03.885Z,88.19
2017-07-21T03:00:36.153Z,88.22
2017-07-21T03:03:08.420Z,88.28
2017-07-21T03:05:40.857Z,88.25
2017-07-21T03:08:13.184Z,88.57
2017-07-21T03:10:45.636Z,88.82
2017-07-21T03:13:18.285Z,89.29
2017-07-21T03:15:50.794Z,89.65
2017-07-21T03:18:23.184Z,89.78
2017-07-21T03:20:55.605Z,89.75
2017-07-21T03:23:28.032Z,90.15
2017-07-21T03:26:00.337Z,89.73
2017-07-21T03:28:32.574Z,89.90
2017-07-21T03:31:05.033Z,90.31
2017-07-21T03:33:37.321Z,90.93
2017-07-21T03:36:09.721Z,91.34
2017-07-21T03:38:41.965Z,91.35
2017-07-21T03:41:14.337Z,90.72
2017-07-21T03:43:46.794Z,90.48
2017-07-21T03:46:19.202Z,90.69
2017-07-21T03:48:51.457Z,91.11
2017-07-21T03:51:24.100Z,91.24
2017-07-21T03:53:56.482Z,91.34
2017-07-21T03:56:28.892Z,91.19
2017-07-21T03:59:01.254Z,90.66
2017-07-21T04:01:33.680Z,90.34
2017-07-21T04:04:06.053Z,90.05
2017-07-21T04:06:38.466Z,89.90
2017-07-21T04:09:10.842Z,89.75
2017-07-21T04:11:43.179Z,89.31
2017-07-21T04:14:15.554Z,89.17
2017-07-21T04:16:47.904Z,88.92
2017-07-21T04:19:20.133Z,88.12
2017-07-21T04:21:52.402Z,87.56
2017-07-21T04:24:24.767Z,86.27
2017-07-21T04:26:57.046Z,83.91
2017-07-21T04:29:29.394Z,80.39
2017-07-21T04:32:01.774Z,75.93
2017-07-21T04:34:34.047Z,73.92
2017-07-21T04:37:06.332Z,71.46
2017-07-21T04:39:38.774Z,69.59
2017-07-21T04:42:11.204Z,68.27
2017-07-21T04:44:43.466Z,67.40
2017-07-21T04:47:15.912Z,65.60
2017-07-21T04:49:48.422Z,63.87
2017-07-21T04:52:20.785Z,62.71
2017-07-21T04:54:53.266Z,60.64
2017-07-21T04:57:26.857Z,59.85
2017-07-21T04:59:59.066Z,59.11
2017-07-21T05:02:31.508Z,58.19
2017-07-21T05:05:03.950Z,56.52
2017-07-21T05:07:36.357Z,55.33
2017-07-21T05:10:08.709Z,55.58
2017-07-21T05:12:41.211Z,56.53
2017-07-21T05:15:13.876Z,55.49
2017-07-21T05:17:46.065Z,55.56
2017-07-21T05:20:18.412Z,57.01
2017-07-21T05:22:50.847Z,58.72
2017-07-21T05:25:23.201Z,57.88
2017-07-21T05:27:55.949Z,57.18
2017-07-21T05:30:28.100Z,55.59
2017-07-21T05:33:00.498Z,55.64
2017-07-21T05:35:32.925Z,53.35
2017-07-21T05:38:05.469Z,52.54
2017-07-21T05:40:37.910Z,49.52
2017-07-21T05:43:10.597Z,48.81
2017-07-21T05:45:42.652Z,49.34
2017-07-21T05:48:15.156Z,50.07
2017-07-21T05:50:47.532Z,48.98
2017-07-21T05:53:20.015Z,48.20
2017-07-21T05:55:52.461Z,47.08
2017-07-21T05:58:25.061Z,45.78
2017-07-21T06:00:57.554Z,44.52
2017-07-21T06:03:29.906Z,46.07
2017-07-21T06:06:02.569Z,46.73
2017-07-21T06:08:34.798Z,46.03
2017-07-21T06:11:07.146Z,46.05
2017-07-21T06:13:39.503Z,45.58
2017-07-21T06:16:11.823Z,46.09
2017-07-21T06:18:44.268Z,44.89
2017-07-21T06:21:16.618Z,42.68
2017-07-21T06:23:49.130Z,43.00
2017-07-21T06:26:21.486Z,44.30
2017-07-21T06:28:53.818Z,46.29
2017-07-21T06:31:26.213Z,47.59
2017-07-21T06:33:58.630Z,48.28
2017-07-21T06:36:30.969Z,48.60
2017-07-21T06:39:03.577Z,48.07
2017-07-21T06:41:35.972Z,46.22
2017-07-21T06:44:08.400Z,43.69
2017-07-21T06:46:40.766Z,41.41
2017-07-21T06:49:20.144Z,39.60
2017-07-21T06:51:52.545Z,37.99
2017-07-21T06:54:24.979Z,37.32
2017-07-21T06:56:57.401Z,36.36
2017-07-21T06:59:29.813Z,35.09
2017-07-21T07:02:02.095Z,33.91
2017-07-21T07:04:34.507Z,32.69
2017-07-21T07:07:06.862Z,33.05
2017-07-21T07:09:39.330Z,32.72
2017-07-21T07:12:11.525Z,33.12
2017-07-21T07:14:44.026Z,32.75
2017-07-21T07:17:16.398Z,33.46
2017-07-21T07:19:48.850Z,34.59
2017-07-21T07:22:21.252Z,34.52
2017-07-21T07:24:53.663Z,35.56
2017-07-21T07:27:27.016Z,39.87
2017-07-21T07:29:59.525Z,41.96
2017-07-21T07:32:31.953Z,42.24
2017-07-21T07:35:04.489Z,43.06
2017-07-21T07:37:36.917Z,45.13
2017-07-21T07:40:09.396Z,48.50
2017-07-21T07:42:41.646Z,50.61
2017-07-21T07:45:14.075Z,52.16
2017-07-21T07:47:46.420Z,49.24
2017-07-21T07:50:18.693Z,44.88
2017-07-21T07:52:51.069Z,41.09
2017-07-21T07:55:23.553Z,41.04
2017-07-21T07:57:55.953Z,44.74
2017-07-21T08:00:28.278Z,45.29
2017-07-21T08:03:00.702Z,42.85
2017-07-21T08:05:33.071Z,40.37
2017-07-21T08:08:05.412Z,39.18
2017-07-21T08:10:37.814Z,39.24
2017-07-21T08:13:10.153Z,39.34
2017-07-21T08:15:42.657Z,38.10
2017-07-21T08:18:15.085Z,40.11
2017-07-21T08:20:47.520Z,39.45
2017-07-21T08:23:19.853Z,39.41
2017-07-21T08:25:52.301Z,39.14
2017-07-21T08:28:24.688Z,41.50
2017-07-21T08:30:57.214Z,41.70
2017-07-21T08:33:29.539Z,41.96
2017-07-21T08:36:02.125Z,43.75
2017-07-21T08:38:34.538Z,46.23
2017-07-21T08:41:06.698Z,48.47
2017-07-21T08:43:39.093Z,47.95
2017-07-21T08:46:11.525Z,48.55
2017-07-21T08:48:44.014Z,48.17
2017-07-21T08:51:17.581Z,48.80
2017-07-21T08:53:49.673Z,49.68
2017-07-21T08:56:22.040Z,50.04
2017-07-21T08:58:54.279Z,50.62
2017-07-21T09:01:26.714Z,50.54
2017-07-21T09:03:59.042Z,49.65
2017-07-21T09:06:31.444Z,50.07
2017-07-21T09:09:03.922Z,49.20
2017-07-21T09:11:36.345Z,44.59
2017-07-21T09:14:08.628Z,45.94
2017-07-21T09:16:41.051Z,43.01
2017-07-21T09:19:13.528Z,40.74
2017-07-21T09:21:45.992Z,37.80
2017-07-21T09:24:18.442Z,32.53
2017-07-21T09:26:50.724Z,32.37
2017-07-21T09:29:23.116Z,34.13
2017-07-21T09:31:55.581Z,33.07
2017-07-21T09:34:28.088Z,31.41
2017-07-21T09:37:00.532Z,29.41
2017-07-21T09:39:32.849Z,28.81
2017-07-21T09:42:05.288Z,30.13
2017-07-21T09:44:37.606Z,30.96
2017-07-21T09:47:10.085Z,32.22
2017-07-21T09:49:42.366Z,32.25
2017-07-21T09:52:14.834Z,32.64
2017-07-21T09:54:47.029Z,32.01
2017-07-21T09:57:19.445Z,31.76
2017-07-21T09:59:51.995Z,29.98
2017-07-21T10:02:24.385Z,30.57
2017-07-21T10:04:56.803Z,29.82
2017-07-21T10:07:29.097Z,28.39
2017-07-21T10:10:01.378Z,28.52
2017-07-21T10:12:33.729Z,28.95
2017-07-21T10:15:06.225Z,28.67
2017-07-21T10:17:38.649Z,29.37
2017-07-21T10:20:11.009Z,28.89
2017-07-21T10:22:43.415Z,29.78
2017-07-21T10:25:15.592Z,32.23
2017-07-21T10:27:47.955Z,31.20
2017-07-21T10:30:20.353Z,32.67
2017-07-21T10:32:52.757Z,30.28
2017-07-21T10:35:25.081Z,30.26
2017-07-21T10:37:57.566Z,33.10
2017-07-21T10:40:29.995Z,33.63
2017-07-21T10:43:02.681Z,34.66
2017-07-21T10:45:34.917Z,34.42
2017-07-21T10:48:07.312Z,36.15
2017-07-21T10:50:39.602Z,36.91
2017-07-21T10:53:12.062Z,35.31
2017-07-21T10:55:44.593Z,34.42
2017-07-21T10:58:16.942Z,34.24
2017-07-21T11:00:49.097Z,35.04
2017-07-21T11:03:21.494Z,34.22
2017-07-21T11:05:53.821Z,33.46
2017-07-21T11:08:26.198Z,35.36
2017-07-21T11:10:58.509Z,33.99
2017-07-21T11:13:30.752Z,35.15
2017-07-21T11:16:02.954Z,34.57
2017-07-21T11:18:35.217Z,36.79
2017-07-21T11:21:07.551Z,34.24
2017-07-21T11:23:40.017Z,32.92
2017-07-21T11:26:12.393Z,31.74
2017-07-21T11:28:44.836Z,31.28
2017-07-21T11:31:17.225Z,31.54
2017-07-21T11:33:49.542Z,29.76
2017-07-21T11:36:21.885Z,29.90
2017-07-21T11:38:54.165Z,30.64
2017-07-21T11:41:26.430Z,30.61
2017-07-21T11:43:58.882Z,29.47
2017-07-21T11:46:31.137Z,28.90
2017-07-21T11:49:03.403Z,30.54
2017-07-21T11:51:36.131Z,29.50
2017-07-21T11:54:08.046Z,28.56
2017-07-21T11:56:40.241Z,28.16
2017-07-21T11:59:12.538Z,28.03
2017-07-21T12:01:45.145Z,26.87
2017-07-21T12:04:17.504Z,24.03
2017-07-21T12:06:49.684Z,22.50
2017-07-21T12:09:22.023Z,23.10
2017-07-21T12:11:54.416Z,22.99
2017-07-21T12:14:26.565Z,23.54
2017-07-21T12:16:58.826Z,20.86
2017-07-21T12:19:31.188Z,23.52
2017-07-21T12:22:03.456Z,23.95
2017-07-21T12:24:35.852Z,23.45
2017-07-21T12:27:08.188Z,23.06
2017-07-21T12:29:40.601Z,22.94
2017-07-21T12:32:12.898Z,23.16
2017-07-21T12:34:45.317Z,22.75
2017-07-21T12:37:17.662Z,22.80
2017-07-21T12:39:49.946Z,22.54
2017-07-21T12:42:22.328Z,22.85
2017-07-21T12:44:54.646Z,21.47
2017-07-21T12:47:26.881Z,23.83
2017-07-21T12:49:59.280Z,22.68
2017-07-21T12:52:31.641Z,23.87
2017-07-21T12:55:04.156Z,23.01
2017-07-21T12:57:36.558Z,24.42
2017-07-21T13:00:09.069Z,25.24
2017-07-21T13:02:41.338Z,26.67
2017-07-21T13:05:13.729Z,27.92
2017-07-21T13:07:46.070Z,26.85
2017-07-21T13:10:18.478Z,27.31
2017-07-21T13:12:50.805Z,28.24
2017-07-21T13:15:23.322Z,26.65
2017-07-21T13:17:55.561Z,27.32
2017-07-21T13:20:27.986Z,27.53
2017-07-21T13:23:00.299Z,29.01
2017-07-21T13:25:32.713Z,31.25
2017-07-21T13:28:04.977Z,30.07
2017-07-21T13:30:37.644Z,31.43
2017-07-21T13:33:09.685Z,28.35
2017-07-21T13:35:42.106Z,29.08
2017-07-21T13:38:14.284Z,28.46
2017-07-21T13:40:46.589Z,27.60
2017-07-21T13:43:19.022Z,29.45
2017-07-21T13:45:51.372Z,27.06
2017-07-21T13:48:23.640Z,26.42
2017-07-21T13:50:56.159Z,28.33
2017-07-21T13:53:28.501Z,26.04
2017-07-21T13:56:00.808Z,26.51
2017-07-21T13:58:33.074Z,27.35
2017-07-21T14:01:05.320Z,27.71
2017-07-21T14:03:37.582Z,26.93
2017-07-21T14:06:09.901Z,28.23
2017-07-21T14:08:42.241Z,27.49
2017-07-21T14:11:14.543Z,26.51
2017-07-21T14:13:46.808Z,26.41
2017-07-21T14:16:19.054Z,28.10
2017-07-21T14:18:51.306Z,29.12
2017-07-21T14:21:23.658Z,28.33
2017-07-21T14:23:55.938Z,27.39
2017-07-21T14:26:28.358Z,27.92
2017-07-21T14:29:00.605Z,28.45
2017-07-21T14:34:30.339Z,29.34
2017-07-21T14:37:02.702Z,29.55
2017-07-21T14:39:35.051Z,31.03
2017-07-21T14:42:07.461Z,32.00
2017-07-21T14:44:39.744Z,32.60
2017-07-21T14:47:12.104Z,33.31
2017-07-21T14:49:44.489Z,32.45
2017-07-21T14:52:16.856Z,32.70
2017-07-21T14:54:49.204Z,33.97
2017-07-21T14:57:21.577Z,33.54
2017-07-21T14:59:53.820Z,33.71
2017-07-21T15:02:26.232Z,32.96
2017-07-21T15:04:58.612Z,33.30
2017-07-21T15:07:31.005Z,33.18
2017-07-21T15:10:03.288Z,34.46
2017-07-21T15:12:35.686Z,34.27
2017-07-21T15:15:07.967Z,35.54
2017-07-21T15:17:40.196Z,36.02
2017-07-21T15:20:12.448Z,34.93
2017-07-21T15:22:45.007Z,35.15
2017-07-21T15:25:17.031Z,34.13
2017-07-21T15:27:49.452Z,34.63
2017-07-21T15:30:22.000Z,34.15
2017-07-21T15:32:54.499Z,34.83
2017-07-21T15:35:26.852Z,35.36
2017-07-21T15:37:59.257Z,36.28
2017-07-21T15:40:31.708Z,35.86
2017-07-21T15:43:04.100Z,36.37
2017-07-21T15:45:36.456Z,36.35
2017-07-21T15:48:09.018Z,35.14
2017-07-21T15:50:41.300Z,35.04
2017-07-21T15:53:13.727Z,34.75
2017-07-21T15:55:46.201Z,35.32
2017-07-21T15:58:18.748Z,34.49
2017-07-21T16:00:51.212Z,35.36
2017-07-21T16:03:23.601Z,34.99
2017-07-21T16:05:55.936Z,34.04
2017-07-21T16:08:28.376Z,34.62
2017-07-21T16:11:00.736Z,34.40
2017-07-21T16:13:33.068Z,34.56
2017-07-21T16:16:05.428Z,35.18
2017-07-21T16:18:37.852Z,35.23
2017-07-21T16:21:10.192Z,34.31
2017-07-21T16:23:42.705Z,35.06
2017-07-21T16:26:15.249Z,34.98
2017-07-21T16:28:47.743Z,36.34
2017-07-21T16:31:20.204Z,37.26
2017-07-21T16:33:52.704Z,37.66
2017-07-21T16:36:25.036Z,37.07
2017-07-21T16:38:57.436Z,37.53
2017-07-21T16:41:29.690Z,37.60
2017-07-21T16:44:02.196Z,37.47
2017-07-21T16:46:34.740Z,37.57
2017-07-21T16:49:07.354Z,38.28
2017-07-21T16:51:40.233Z,37.86
2017-07-21T16:54:12.329Z,37.56
2017-07-21T16:56:44.977Z,37.47
2017-07-21T16:59:17.147Z,38.02
2017-07-21T17:01:49.526Z,38.70
2017-07-21T17:04:21.936Z,39.19
2017-07-21T17:06:54.360Z,40.44
2017-07-21T17:09:26.666Z,41.10
2017-07-21T17:11:59.013Z,41.14
2017-07-21T17:14:31.272Z,42.19
2017-07-21T17:17:03.640Z,42.26
2017-07-21T17:19:36.124Z,41.94
2017-07-21T17:22:08.525Z,42.05
2017-07-21T17:27:38.740Z,41.81
2017-07-21T17:30:11.115Z,41.29
2017-07-21T17:32:43.447Z,41.59
2017-07-21T17:35:15.741Z,41.60
2017-07-21T17:37:48.023Z,42.39
2017-07-21T17:40:20.586Z,43.52
2017-07-21T17:42:53.065Z,43.96
2017-07-21T17:45:25.555Z,44.89
2017-07-21T17:47:57.984Z,44.11
2017-07-21T17:50:30.459Z,43.27
2017-07-21T17:53:02.759Z,43.63
2017-07-21T17:55:35.201Z,43.64
2017-07-21T17:58:07.548Z,43.61
2017-07-21T18:00:39.944Z,43.13
2017-07-21T18:03:12.343Z,44.10
2017-07-21T18:05:44.807Z,43.86
2017-07-21T18:08:17.109Z,43.40
2017-07-21T18:10:49.684Z,43.62
2017-07-21T18:13:22.036Z,43.03
2017-07-21T18:15:54.520Z,43.83
2017-07-21T18:18:26.815Z,44.25
2017-07-21T18:20:59.271Z,43.70
2017-07-21T18:23:31.879Z,44.68
2017-07-21T18:26:04.017Z,44.46
2017-07-21T18:28:36.300Z,44.95
2017-07-21T18:31:08.798Z,45.61
2017-07-21T18:33:41.135Z,46.35
2017-07-21T18:36:13.599Z,46.84
2017-07-21T18:38:46.051Z,47.42
2017-07-21T18:41:18.511Z,47.80
2017-07-21T18:43:50.876Z,48.44
2017-07-21T18:46:23.352Z,48.52
2017-07-21T18:48:55.827Z,48.96
2017-07-21T18:51:28.302Z,49.11
2017-07-21T18:54:00.662Z,49.53
2017-07-21T18:56:33.171Z,49.80
2017-07-21T18:59:05.656Z,50.20
2017-07-21T19:01:37.935Z,50.54
2017-07-21T19:04:10.260Z,50.86
2017-07-21T19:06:42.732Z,51.53
2017-07-21T19:09:15.019Z,52.34
2017-07-21T19:11:47.483Z,52.38
2017-07-21T19:14:19.915Z,52.72
2017-07-21T19:16:52.420Z,52.83
2017-07-21T19:19:24.819Z,53.32
2017-07-21T19:21:57.281Z,53.76
2017-07-21T19:24:30.151Z,53.95
2017-07-21T19:27:02.160Z,54.61
2017-07-21T19:29:34.600Z,55.23
2017-07-21T19:32:07.047Z,55.42
2017-07-21T19:34:39.365Z,54.92
2017-07-21T19:37:11.915Z,55.79
2017-07-21T19:39:44.142Z,56.29
2017-07-21T19:42:16.647Z,56.88
2017-07-21T19:44:49.059Z,57.10
2017-07-21T19:47:21.611Z,56.88
2017-07-21T19:49:53.976Z,56.87
2017-07-21T19:52:26.439Z,57.48
2017-07-21T19:54:58.868Z,57.21
2017-07-21T19:57:31.352Z,58.03
2017-07-21T20:00:03.533Z,58.40
2017-07-21T20:02:35.925Z,58.51
2017-07-21T20:05:08.166Z,58.26
2017-07-21T20:07:40.515Z,58.59
2017-07-21T20:10:12.868Z,58.52
2017-07-21T20:12:45.556Z,58.85
2017-07-21T20:15:17.968Z,59.14
2017-07-21T20:17:50.452Z,59.40
2017-07-21T20:20:22.775Z,59.16
2017-07-21T20:22:55.287Z,59.50
2017-07-21T20:25:27.514Z,59.63
2017-07-21T20:27:59.906Z,59.75
2017-07-21T20:30:32.339Z,60.15
2017-07-21T20:33:05.508Z,59.79
2017-07-21T20:35:38.047Z,60.59
2017-07-21T20:38:10.444Z,60.58
2017-07-21T20:40:42.688Z,60.92
2017-07-21T20:43:15.079Z,61.26
2017-07-21T20:45:47.327Z,61.49
2017-07-21T20:48:26.750Z,61.66
2017-07-21T20:50:59.092Z,61.87
2017-07-21T20:53:31.528Z,61.98
2017-07-21T20:56:03.671Z,62.31
2017-07-21T20:58:36.099Z,62.68
2017-07-21T21:01:08.512Z,62.75
2017-07-21T21:03:41.013Z,63.11
2017-07-21T21:06:13.140Z,63.00
2017-07-21T21:08:45.524Z,63.04
2017-07-21T21:11:17.767Z,62.87
2017-07-21T21:13:50.115Z,63.17
2017-07-21T21:16:22.427Z,63.59
2017-07-21T21:18:54.797Z,63.69
2017-07-21T21:21:27.147Z,63.97
2017-07-21T21:23:59.515Z,64.00
2017-07-21T21:26:31.924Z,64.00
2017-07-21T21:29:04.391Z,64.20
2017-07-21T21:31:36.423Z,64.19
2017-07-21T21:34:08.796Z,64.60
2017-07-21T21:36:41.139Z,64.75
2017-07-21T21:39:13.477Z,64.95
2017-07-21T21:41:45.804Z,65.13
2017-07-21T21:44:18.184Z,65.26
2017-07-21T21:46:50.419Z,65.45
2017-07-21T21:49:22.816Z,65.59
2017-07-21T21:51:55.063Z,65.93
2017-07-21T21:54:27.467Z,66.10
2017-07-21T21:56:59.920Z,66.10
2017-07-21T21:59:32.326Z,66.27
2017-07-21T22:02:04.701Z,66.73
2017-07-21T22:04:37.183Z,66.60
2017-07-21T22:07:09.448Z,67.40
2017-07-21T22:09:41.743Z,67.72
2017-07-21T22:12:14.112Z,68.28
2017-07-21T22:14:46.540Z,68.59
2017-07-21T22:17:18.972Z,69.14
2017-07-21T22:19:51.389Z,68.80
2017-07-21T22:22:23.872Z,69.17
2017-07-21T22:24:56.284Z,69.38
2017-07-21T22:27:28.516Z,69.77
2017-07-21T22:30:00.687Z,70.09
2017-07-21T22:32:32.884Z,70.34
2017-07-21T22:35:05.148Z,70.03
2017-07-21T22:37:37.487Z,70.40
2017-07-21T22:40:09.996Z,70.77
2017-07-21T22:42:42.065Z,70.90
2017-07-21T22:45:14.365Z,71.53
2017-07-21T22:47:46.503Z,71.74
2017-07-21T22:50:18.998Z,71.68
2017-07-21T22:52:51.331Z,71.68
2017-07-21T22:55:23.600Z,72.12
2017-07-21T22:57:56.114Z,72.30
2017-07-21T23:00:28.327Z,72.29
2017-07-21T23:03:00.608Z,72.48
2017-07-21T23:05:33.169Z,72.81
2017-07-21T23:08:05.486Z,73.07
2017-07-21T23:10:37.933Z,73.45
2017-07-21T23:13:10.447Z,73.14
2017-07-21T23:15:42.796Z,73.69
2017-07-21T23:18:15.184Z,73.57
2017-07-21T23:20:47.493Z,73.30
2017-07-21T23:23:19.805Z,73.56
2017-07-21T23:25:52.216Z,73.36
2017-07-21T23:28:24.551Z,73.43
2017-07-21T23:30:56.931Z,73.58
2017-07-21T23:33:29.276Z,73.92
2017-07-21T23:36:01.673Z,73.66
2017-07-21T23:38:34.176Z,73.47
2017-07-21T23:41:06.459Z,73.82
2017-07-21T23:43:38.787Z,73.88
2017-07-21T23:46:11.153Z,73.77
2017-07-21T23:48:43.680Z,74.45
2017-07-21T23:51:16.007Z,74.56
2017-07-21T23:53:48.435Z,74.58
2017-07-21T23:56:20.827Z,74.55
2017-07-21T23:58:53.240Z,74.88
